WetterOnline ( http://www.wetteronline.de )

Wetter aktuell Giesensdorf

Aktuelles Wetter: Lübeck/Blankensee (15m)

6-stündlich | Neueste Meldungen
Ortszeit Temperatur Wetter
Fr, 23.02. 7:00 -4.7° C wolkenlos
Fr, 23.02. 1:00 -0.9° C bedeckt
Do, 22.02. 19:00 -0.2° C bewölkt
Do, 22.02. 13:00 2.0° C bedeckt
Do, 22.02. 7:00 -1.4° C Schneefall
Do, 22.02. 1:00 -3.7° C bedeckt
Mi, 21.02. 19:00 -1.8° C bedeckt
Mi, 21.02. 13:00 2.9° C bewölkt
Ortszeit Temperatur Wetter
Fr, 23.02. 11:20 -1° C -
Fr, 23.02. 11:00 -1.4° C wolkenlos
Fr, 23.02. 10:50 -1.4° C wolkenlos
Fr, 23.02. 10:40 -1.3° C fast wolkenlos
Fr, 23.02. 10:30 -1.4° C leicht bewölkt
Fr, 23.02. 10:20 -1.4° C leicht bewölkt
Fr, 23.02. 10:00 -1.8° C wolkenlos
Fr, 23.02. 9:30 -2.1° C fast wolkenlos
Fr, 23.02. 9:00 -2.6° C wolkenlos
Fr, 23.02. 8:30 -4.0° C leicht bewölkt
Fr, 23.02. 8:00 -5.3° C leicht bewölkt
Ortszeit Relative Feuchte Sichtweite
Fr, 23.02. 7:00 87% 17 km
Fr, 23.02. 1:00 88% 10 km
Do, 22.02. 19:00 80% 24 km
Do, 22.02. 13:00 74% 9 km
Do, 22.02. 7:00 98% 3.0 km
Do, 22.02. 1:00 98% 4.0 km
Mi, 21.02. 19:00 91% 9 km
Mi, 21.02. 13:00 66% 15 km
Ortszeit Relative Feuchte Sichtweite
Fr, 23.02. 11:20 64% >10 km
Fr, 23.02. 11:00 64% 9 km
Fr, 23.02. 10:50 64% -
Fr, 23.02. 10:40 67% -
Fr, 23.02. 10:30 67% 10 km
Fr, 23.02. 10:20 67% -
Fr, 23.02. 10:00 66% 12 km
Fr, 23.02. 9:30 70% 16 km
Fr, 23.02. 9:00 73% 15 km
Fr, 23.02. 8:30 79% 20 km
Fr, 23.02. 8:00 82% 19 km
Ortszeit Niederschlagsmenge Niederschlagsart
Fr, 23.02. 7:00 0.1 l/m2 in 12 Std. -
Fr, 23.02. 1:00 0.1 l/m2 in 6 Std. Schnee
Do, 22.02. 19:00 0.1 l/m2 in 12 Std. -
Do, 22.02. 13:00 0.1 l/m2 in 6 Std. Schnee
Do, 22.02. 7:00 0.1 l/m2 in 12 Std. Schnee
Do, 22.02. 1:00 0.0 l/m2 in 6 Std. -
Mi, 21.02. 19:00 0.0 l/m2 in 12 Std. -
Mi, 21.02. 13:00 0.0 l/m2 in 6 Std. -
Ortszeit Niederschlagsmenge Niederschlagsart
Fr, 23.02. 11:20 keine Meldung -
Fr, 23.02. 11:00 0.0 l/m2 in 1 Std. -
Fr, 23.02. 10:50 keine Meldung -
Fr, 23.02. 10:40 keine Meldung -
Fr, 23.02. 10:30 0.0 l/m2 in 1 Std. -
Fr, 23.02. 10:20 keine Meldung -
Fr, 23.02. 10:00 0.0 l/m2 in 1 Std. -
Fr, 23.02. 9:30 0.0 l/m2 in 1 Std. -
Fr, 23.02. 9:00 0.0 l/m2 in 1 Std. -
Fr, 23.02. 8:30 0.0 l/m2 in 1 Std. -
Fr, 23.02. 8:00 0.0 l/m2 in 1 Std. -
Ortszeit Stärke Spitze Richtung
km/h Bft. km/h Grad Sektor
Fr, 23.02. 7:00 7 2 20 50° NO
Fr, 23.02. 1:00 11 2 18 70° O
Do, 22.02. 19:00 7 2 26 30° NO
Do, 22.02. 13:00 7 2 11 330° NW
Do, 22.02. 7:00 0 0 7 - -
Do, 22.02. 1:00 0 0 4 - -
Mi, 21.02. 19:00 4 1 18 60° NO
Mi, 21.02. 13:00 9 2 19 60° NO
Ortszeit Stärke Spitze Richtung
km/h Bft. km/h Grad Sektor
Fr, 23.02. 11:20 13 3 - 90° O
Fr, 23.02. 11:00 17 3 24 90° O
Fr, 23.02. 10:50 17 3 - 90° O
Fr, 23.02. 10:40 14 3 - 90° O
Fr, 23.02. 10:30 14 3 25 90° O
Fr, 23.02. 10:20 14 3 - 90° O
Fr, 23.02. 10:00 20 4 31 70° O
Fr, 23.02. 9:30 18 3 25 70° O
Fr, 23.02. 9:00 13 3 20 70° O
Fr, 23.02. 8:30 9 2 15 70° O
Fr, 23.02. 8:00 7 2 11 70° O
Ortszeit Untergrenze Bedeckung Gattung
total tief tief mittel hoch
Fr, 23.02. 7:00 - 0/8 0/8 - - -
Fr, 23.02. 1:00 1380 m 8/8 8/8 - - -
Do, 22.02. 19:00 870 m 7/8 8/8 - - -
Do, 22.02. 13:00 540 m 8/8 8/8 - - -
Do, 22.02. 7:00 1500 m 7/8 7/8 - - -
Do, 22.02. 1:00 1800 m 8/8 8/8 - - -
Mi, 21.02. 19:00 4200 m 8/8 8/8 - - -
Mi, 21.02. 13:00 750 m 7/8 7/8 - - -
Ortszeit Bedeckungsgrad in Achtel und Wolkenuntergrenze
Fr, 23.02. 11:20 keine Wolken(unter 1500 m)
Fr, 23.02. 11:00 keine Wolken
Fr, 23.02. 10:50 keine Wolken
Fr, 23.02. 10:40 1(7800m)
Fr, 23.02. 10:30 1(6900m)
Fr, 23.02. 10:20 1(6900m) 2(7800m)
Fr, 23.02. 10:00 2(6900m)
Fr, 23.02. 9:30 2(8700m)
Fr, 23.02. 9:00 keine Wolken
Fr, 23.02. 8:30 4(7800m) 4(8400m)
Fr, 23.02. 8:00 4(8100m)
Ortszeit Luftdruck NN (hPa) Tendenz (hPa in 3 Std.)
Fr, 23.02. 7:00 1028 + 0,7
Fr, 23.02. 1:00 1027 + 0,5
Do, 22.02. 19:00 1027 + 0,2
Do, 22.02. 13:00 1028 - 0,2
Do, 22.02. 7:00 1028 0,0
Do, 22.02. 1:00 1028 0,0
Mi, 21.02. 19:00 1028 + 0,5
Mi, 21.02. 13:00 1028 + 0,2
Ortszeit Luftdruck NN (hPa) Tendenz (hPa in 3 Std.)
Fr, 23.02. 11:20 1029 keine Meldung
Fr, 23.02. 11:00 1029 + 0,8
Fr, 23.02. 10:50 1029 keine Meldung
Fr, 23.02. 10:40 1029 keine Meldung
Fr, 23.02. 10:30 1029 + 0,8
Fr, 23.02. 10:20 1029 keine Meldung
Fr, 23.02. 10:00 1029 + 0,9
Fr, 23.02. 9:30 1029 + 0,9
Fr, 23.02. 9:00 1028 + 0,8
Fr, 23.02. 8:30 1028 + 0,7
Fr, 23.02. 8:00 1028 + 0,7
Ortszeit Schneehöhe (cm)
Fr, 23.02. 7:00 0
Fr, 23.02. 1:00 0
Do, 22.02. 19:00 0
Do, 22.02. 13:00 0
Do, 22.02. 7:00 0
Do, 22.02. 1:00 0
Mi, 21.02. 19:00 0
Mi, 21.02. 13:00 0
Ortszeit Schneehöhe (cm)
Fr, 23.02. 11:20 -
Fr, 23.02. 11:00 0
Fr, 23.02. 10:50 0
Fr, 23.02. 10:40 0
Fr, 23.02. 10:30 0
Fr, 23.02. 10:20 0
Fr, 23.02. 10:00 0
Fr, 23.02. 9:30 0
Fr, 23.02. 9:00 0
Fr, 23.02. 8:30 0
Fr, 23.02. 8:00 0
Link zu dieser Seite / Seite empfehlen

Das Wetter in ...